sensor_id;sensor_type;location;lat;lon;timestamp;temperature;humidity
77727;SHT30;68312;53.502;10.030;2023-03-08T00:01:39;-0.39;84.66
77727;SHT30;68312;53.502;10.030;2023-03-08T00:04:05;-0.37;84.78
77727;SHT30;68312;53.502;10.030;2023-03-08T00:06:30;-0.40;84.78
77727;SHT30;68312;53.502;10.030;2023-03-08T00:08:58;-0.42;84.90
77727;SHT30;68312;53.502;10.030;2023-03-08T00:11:26;-0.36;84.98
77727;SHT30;68312;53.502;10.030;2023-03-08T00:13:52;-0.39;84.89
77727;SHT30;68312;53.502;10.030;2023-03-08T00:16:19;-0.37;84.89
77727;SHT30;68312;53.502;10.030;2023-03-08T00:18:45;-0.40;85.13
77727;SHT30;68312;53.502;10.030;2023-03-08T00:21:16;-0.48;85.28
77727;SHT30;68312;53.502;10.030;2023-03-08T00:23:43;-0.48;85.43
77727;SHT30;68312;53.502;10.030;2023-03-08T00:26:12;-0.43;85.49
77727;SHT30;68312;53.502;10.030;2023-03-08T00:28:39;-0.53;85.68
77727;SHT30;68312;53.502;10.030;2023-03-08T00:31:09;-0.55;86.00
77727;SHT30;68312;53.502;10.030;2023-03-08T00:33:36;-0.52;85.96
77727;SHT30;68312;53.502;10.030;2023-03-08T00:36:18;-0.42;85.98
77727;SHT30;68312;53.502;10.030;2023-03-08T00:38:46;-0.40;85.73
77727;SHT30;68312;53.502;10.030;2023-03-08T00:41:12;-0.45;85.92
77727;SHT30;68312;53.502;10.030;2023-03-08T00:43:37;-0.48;86.12
77727;SHT30;68312;53.502;10.030;2023-03-08T00:46:04;-0.56;86.44
77727;SHT30;68312;53.502;10.030;2023-03-08T00:48:30;-0.57;86.51
77727;SHT30;68312;53.502;10.030;2023-03-08T00:51:02;-0.67;86.81
77727;SHT30;68312;53.502;10.030;2023-03-08T00:53:28;-0.79;87.17
77727;SHT30;68312;53.502;10.030;2023-03-08T00:55:57;-0.81;87.56
77727;SHT30;68312;53.502;10.030;2023-03-08T00:58:26;-0.88;87.81
77727;SHT30;68312;53.502;10.030;2023-03-08T01:00:53;-0.88;88.13
77727;SHT30;68312;53.502;10.030;2023-03-08T01:03:20;-0.84;88.51
77727;SHT30;68312;53.502;10.030;2023-03-08T01:05:52;-0.81;88.33
77727;SHT30;68312;53.502;10.030;2023-03-08T01:08:20;-0.86;88.27
77727;SHT30;68312;53.502;10.030;2023-03-08T01:10:57;-0.93;88.52
77727;SHT30;68312;53.502;10.030;2023-03-08T01:13:29;-0.91;88.71
77727;SHT30;68312;53.502;10.030;2023-03-08T01:16:00;-0.91;88.92
77727;SHT30;68312;53.502;10.030;2023-03-08T01:18:26;-0.97;89.01
77727;SHT30;68312;53.502;10.030;2023-03-08T01:21:01;-1.03;89.06
77727;SHT30;68312;53.502;10.030;2023-03-08T01:23:29;-1.01;89.40
77727;SHT30;68312;53.502;10.030;2023-03-08T01:26:04;-0.97;89.19
77727;SHT30;68312;53.502;10.030;2023-03-08T01:28:32;-0.98;89.25
77727;SHT30;68312;53.502;10.030;2023-03-08T01:31:14;-1.00;89.15
77727;SHT30;68312;53.502;10.030;2023-03-08T01:33:43;-1.04;89.35
77727;SHT30;68312;53.502;10.030;2023-03-08T01:36:13;-1.05;89.39
77727;SHT30;68312;53.502;10.030;2023-03-08T01:38:40;-1.11;89.59
77727;SHT30;68312;53.502;10.030;2023-03-08T01:41:11;-1.17;89.63
77727;SHT30;68312;53.502;10.030;2023-03-08T01:43:39;-1.17;89.84
77727;SHT30;68312;53.502;10.030;2023-03-08T01:46:29;-1.12;89.90
77727;SHT30;68312;53.502;10.030;2023-03-08T01:52:09;-1.19;90.17
77727;SHT30;68312;53.502;10.030;2023-03-08T01:54:48;-1.18;90.37
77727;SHT30;68312;53.502;10.030;2023-03-08T01:57:40;-1.21;90.28
77727;SHT30;68312;53.502;10.030;2023-03-08T02:00:15;-1.24;90.37
77727;SHT30;68312;53.502;10.030;2023-03-08T02:02:48;-1.31;90.31
77727;SHT30;68312;53.502;10.030;2023-03-08T02:05:17;-1.42;90.69
77727;SHT30;68312;53.502;10.030;2023-03-08T02:07:44;-1.46;90.97
77727;SHT30;68312;53.502;10.030;2023-03-08T02:10:11;-1.49;91.17
77727;SHT30;68312;53.502;10.030;2023-03-08T02:12:39;-1.52;91.28
77727;SHT30;68312;53.502;10.030;2023-03-08T02:15:09;-1.54;91.46
77727;SHT30;68312;53.502;10.030;2023-03-08T02:17:39;-1.49;91.67
77727;SHT30;68312;53.502;10.030;2023-03-08T02:20:31;-1.46;91.58
77727;SHT30;68312;53.502;10.030;2023-03-08T02:23:23;-1.44;91.63
77727;SHT30;68312;53.502;10.030;2023-03-08T02:26:04;-1.46;91.58
77727;SHT30;68312;53.502;10.030;2023-03-08T02:28:31;-1.51;91.69
77727;SHT30;68312;53.502;10.030;2023-03-08T02:31:00;-1.49;91.76
77727;SHT30;68312;53.502;10.030;2023-03-08T02:33:26;-1.51;91.95
77727;SHT30;68312;53.502;10.030;2023-03-08T02:35:52;-1.45;92.05
77727;SHT30;68312;53.502;10.030;2023-03-08T02:38:20;-1.36;92.15
77727;SHT30;68312;53.502;10.030;2023-03-08T02:40:46;-1.27;92.03
77727;SHT30;68312;53.502;10.030;2023-03-08T02:43:16;-1.12;91.65
77727;SHT30;68312;53.502;10.030;2023-03-08T02:45:43;-0.87;91.22
77727;SHT30;68312;53.502;10.030;2023-03-08T02:48:10;-0.69;90.68
77727;SHT30;68312;53.502;10.030;2023-03-08T02:50:36;-0.66;90.50
77727;SHT30;68312;53.502;10.030;2023-03-08T02:53:04;-0.57;90.23
77727;SHT30;68312;53.502;10.030;2023-03-08T02:55:29;-0.46;90.05
77727;SHT30;68312;53.502;10.030;2023-03-08T02:57:55;-0.43;89.93
77727;SHT30;68312;53.502;10.030;2023-03-08T03:00:20;-0.42;89.73
77727;SHT30;68312;53.502;10.030;2023-03-08T03:02:46;-0.36;89.39
77727;SHT30;68312;53.502;10.030;2023-03-08T03:05:12;-0.37;89.47
77727;SHT30;68312;53.502;10.030;2023-03-08T03:07:41;-0.33;89.49
77727;SHT30;68312;53.502;10.030;2023-03-08T03:10:09;-0.30;89.46
77727;SHT30;68312;53.502;10.030;2023-03-08T03:12:36;-0.23;89.08
77727;SHT30;68312;53.502;10.030;2023-03-08T03:15:07;-0.23;89.12
77727;SHT30;68312;53.502;10.030;2023-03-08T03:17:34;-0.21;88.74
77727;SHT30;68312;53.502;10.030;2023-03-08T03:20:03;-0.23;88.79
77727;SHT30;68312;53.502;10.030;2023-03-08T03:22:31;-0.21;88.63
77727;SHT30;68312;53.502;10.030;2023-03-08T03:24:57;-0.15;87.94
77727;SHT30;68312;53.502;10.030;2023-03-08T03:27:23;-0.14;88.32
77727;SHT30;68312;53.502;10.030;2023-03-08T03:29:48;-0.15;88.25
77727;SHT30;68312;53.502;10.030;2023-03-08T03:32:14;-0.22;88.70
77727;SHT30;68312;53.502;10.030;2023-03-08T03:34:39;-0.19;88.83
77727;SHT30;68312;53.502;10.030;2023-03-08T03:37:05;-0.21;89.00
77727;SHT30;68312;53.502;10.030;2023-03-08T03:39:35;-0.21;89.12
77727;SHT30;68312;53.502;10.030;2023-03-08T03:42:01;-0.21;89.00
77727;SHT30;68312;53.502;10.030;2023-03-08T03:44:29;-0.23;88.92
77727;SHT30;68312;53.502;10.030;2023-03-08T03:46:55;-0.26;88.98
77727;SHT30;68312;53.502;10.030;2023-03-08T03:49:21;-0.23;88.89
77727;SHT30;68312;53.502;10.030;2023-03-08T03:51:46;-0.22;88.82
77727;SHT30;68312;53.502;10.030;2023-03-08T03:54:12;-0.25;88.65
77727;SHT30;68312;53.502;10.030;2023-03-08T03:56:40;-0.23;88.80
77727;SHT30;68312;53.502;10.030;2023-03-08T03:59:06;-0.28;88.91
77727;SHT30;68312;53.502;10.030;2023-03-08T04:01:32;-0.29;89.02
77727;SHT30;68312;53.502;10.030;2023-03-08T04:03:58;-0.23;88.77
77727;SHT30;68312;53.502;10.030;2023-03-08T04:06:30;-0.26;88.74
77727;SHT30;68312;53.502;10.030;2023-03-08T04:09:04;-0.29;88.95
77727;SHT30;68312;53.502;10.030;2023-03-08T04:11:35;-0.29;89.01
77727;SHT30;68312;53.502;10.030;2023-03-08T04:14:03;-0.25;88.95
77727;SHT30;68312;53.502;10.030;2023-03-08T04:16:35;-0.23;88.89
77727;SHT30;68312;53.502;10.030;2023-03-08T04:19:10;-0.23;89.02
77727;SHT30;68312;53.502;10.030;2023-03-08T04:21:36;-0.22;89.02
77727;SHT30;68312;53.502;10.030;2023-03-08T04:24:06;-0.19;89.14
77727;SHT30;68312;53.502;10.030;2023-03-08T04:26:33;-0.18;89.18
77727;SHT30;68312;53.502;10.030;2023-03-08T04:28:59;-0.18;89.20
77727;SHT30;68312;53.502;10.030;2023-03-08T04:31:28;-0.14;88.91
77727;SHT30;68312;53.502;10.030;2023-03-08T04:33:54;-0.08;89.00
77727;SHT30;68312;53.502;10.030;2023-03-08T04:36:21;-0.07;88.68
77727;SHT30;68312;53.502;10.030;2023-03-08T04:38:48;-0.02;88.54
77727;SHT30;68312;53.502;10.030;2023-03-08T04:41:18;0.03;88.34
77727;SHT30;68312;53.502;10.030;2023-03-08T04:43:53;0.17;87.49
77727;SHT30;68312;53.502;10.030;2023-03-08T04:46:24;0.14;87.38
77727;SHT30;68312;53.502;10.030;2023-03-08T04:48:51;0.09;87.81
77727;SHT30;68312;53.502;10.030;2023-03-08T04:51:18;0.24;88.02
77727;SHT30;68312;53.502;10.030;2023-03-08T04:53:45;0.19;87.75
77727;SHT30;68312;53.502;10.030;2023-03-08T04:56:12;0.13;87.76
77727;SHT30;68312;53.502;10.030;2023-03-08T04:58:40;0.14;87.77
77727;SHT30;68312;53.502;10.030;2023-03-08T05:01:11;0.17;87.44
77727;SHT30;68312;53.502;10.030;2023-03-08T05:03:39;0.19;87.14
77727;SHT30;68312;53.502;10.030;2023-03-08T05:06:06;0.12;87.54
77727;SHT30;68312;53.502;10.030;2023-03-08T05:08:32;0.23;87.34
77727;SHT30;68312;53.502;10.030;2023-03-08T05:11:00;0.16;87.48
77727;SHT30;68312;53.502;10.030;2023-03-08T05:13:32;0.20;87.10
77727;SHT30;68312;53.502;10.030;2023-03-08T05:16:02;0.24;87.15
77727;SHT30;68312;53.502;10.030;2023-03-08T05:18:29;0.23;86.95
77727;SHT30;68312;53.502;10.030;2023-03-08T05:21:01;0.19;87.08
77727;SHT30;68312;53.502;10.030;2023-03-08T05:23:32;0.20;86.88
77727;SHT30;68312;53.502;10.030;2023-03-08T05:26:00;0.19;86.56
77727;SHT30;68312;53.502;10.030;2023-03-08T05:28:31;0.20;86.63
77727;SHT30;68312;53.502;10.030;2023-03-08T05:31:09;0.23;86.43
77727;SHT30;68312;53.502;10.030;2023-03-08T05:33:36;0.17;86.79
77727;SHT30;68312;53.502;10.030;2023-03-08T05:36:03;0.09;87.05
77727;SHT30;68312;53.502;10.030;2023-03-08T05:38:30;0.14;87.04
77727;SHT30;68312;53.502;10.030;2023-03-08T05:41:05;0.10;87.33
77727;SHT30;68312;53.502;10.030;2023-03-08T05:43:32;0.07;87.45
77727;SHT30;68312;53.502;10.030;2023-03-08T05:46:02;0.12;86.94
77727;SHT30;68312;53.502;10.030;2023-03-08T05:48:32;0.06;87.05
77727;SHT30;68312;53.502;10.030;2023-03-08T05:51:07;0.03;86.84
77727;SHT30;68312;53.502;10.030;2023-03-08T05:53:38;0.13;87.00
77727;SHT30;68312;53.502;10.030;2023-03-08T05:56:15;0.03;87.08
77727;SHT30;68312;53.502;10.030;2023-03-08T05:58:47;0.03;87.53
77727;SHT30;68312;53.502;10.030;2023-03-08T06:01:22;0.01;87.87
77727;SHT30;68312;53.502;10.030;2023-03-08T06:03:55;0.07;87.39
77727;SHT30;68312;53.502;10.030;2023-03-08T06:06:25;0.10;87.09
77727;SHT30;68312;53.502;10.030;2023-03-08T06:08:54;0.12;87.32
77727;SHT30;68312;53.502;10.030;2023-03-08T06:11:25;0.07;87.60
77727;SHT30;68312;53.502;10.030;2023-03-08T06:13:50;0.09;87.62
77727;SHT30;68312;53.502;10.030;2023-03-08T06:16:16;0.16;87.21
77727;SHT30;68312;53.502;10.030;2023-03-08T06:18:42;0.10;87.22
77727;SHT30;68312;53.502;10.030;2023-03-08T06:21:16;0.07;87.03
77727;SHT30;68312;53.502;10.030;2023-03-08T06:23:45;0.10;87.06
77727;SHT30;68312;53.502;10.030;2023-03-08T06:26:13;0.10;87.18
77727;SHT30;68312;53.502;10.030;2023-03-08T06:28:39;0.06;87.61
77727;SHT30;68312;53.502;10.030;2023-03-08T06:31:07;0.09;87.61
77727;SHT30;68312;53.502;10.030;2023-03-08T06:33:35;0.10;87.62
77727;SHT30;68312;53.502;10.030;2023-03-08T06:36:04;0.22;86.64
77727;SHT30;68312;53.502;10.030;2023-03-08T06:38:36;0.22;86.36
77727;SHT30;68312;53.502;10.030;2023-03-08T06:41:03;0.14;86.74
77727;SHT30;68312;53.502;10.030;2023-03-08T06:43:29;0.13;87.06
77727;SHT30;68312;53.502;10.030;2023-03-08T06:45:55;0.13;87.20
77727;SHT30;68312;53.502;10.030;2023-03-08T06:48:21;0.19;86.76
77727;SHT30;68312;53.502;10.030;2023-03-08T06:50:47;0.30;86.74
77727;SHT30;68312;53.502;10.030;2023-03-08T06:53:13;0.33;86.37
77727;SHT30;68312;53.502;10.030;2023-03-08T06:55:45;0.30;85.87
77727;SHT30;68312;53.502;10.030;2023-03-08T06:58:11;0.39;85.86
77727;SHT30;68312;53.502;10.030;2023-03-08T07:00:37;0.37;86.04
77727;SHT30;68312;53.502;10.030;2023-03-08T07:03:02;0.39;85.51
77727;SHT30;68312;53.502;10.030;2023-03-08T07:05:28;0.36;85.81
77727;SHT30;68312;53.502;10.030;2023-03-08T07:07:53;0.39;85.73
77727;SHT30;68312;53.502;10.030;2023-03-08T07:10:20;0.42;85.23
77727;SHT30;68312;53.502;10.030;2023-03-08T07:12:49;0.37;85.10
77727;SHT30;68312;53.502;10.030;2023-03-08T07:15:19;0.37;85.33
77727;SHT30;68312;53.502;10.030;2023-03-08T07:17:48;0.44;85.62
77727;SHT30;68312;53.502;10.030;2023-03-08T07:20:18;0.44;85.67
77727;SHT30;68312;53.502;10.030;2023-03-08T07:22:45;0.49;85.20
77727;SHT30;68312;53.502;10.030;2023-03-08T07:25:14;0.50;85.57
77727;SHT30;68312;53.502;10.030;2023-03-08T07:27:44;0.51;85.55
77727;SHT30;68312;53.502;10.030;2023-03-08T07:30:13;0.57;85.71
77727;SHT30;68312;53.502;10.030;2023-03-08T07:32:40;0.63;84.68
77727;SHT30;68312;53.502;10.030;2023-03-08T07:35:12;0.70;84.66
77727;SHT30;68312;53.502;10.030;2023-03-08T07:37:39;0.70;84.13
77727;SHT30;68312;53.502;10.030;2023-03-08T07:40:10;0.74;84.29
77727;SHT30;68312;53.502;10.030;2023-03-08T07:42:38;0.74;84.03
77727;SHT30;68312;53.502;10.030;2023-03-08T07:45:05;0.77;83.90
77727;SHT30;68312;53.502;10.030;2023-03-08T07:47:31;0.84;83.15
77727;SHT30;68312;53.502;10.030;2023-03-08T07:49:56;0.81;83.36
77727;SHT30;68312;53.502;10.030;2023-03-08T07:52:27;0.84;83.13
77727;SHT30;68312;53.502;10.030;2023-03-08T07:54:54;0.84;83.22
77727;SHT30;68312;53.502;10.030;2023-03-08T07:57:20;0.91;83.51
77727;SHT30;68312;53.502;10.030;2023-03-08T07:59:45;0.89;83.38
77727;SHT30;68312;53.502;10.030;2023-03-08T08:02:12;0.95;83.09
77727;SHT30;68312;53.502;10.030;2023-03-08T08:04:40;0.91;82.75
77727;SHT30;68312;53.502;10.030;2023-03-08T08:07:12;1.03;82.61
77727;SHT30;68312;53.502;10.030;2023-03-08T08:09:40;1.06;82.13
77727;SHT30;68312;53.502;10.030;2023-03-08T08:12:06;1.13;82.14
77727;SHT30;68312;53.502;10.030;2023-03-08T08:14:32;1.22;82.17
77727;SHT30;68312;53.502;10.030;2023-03-08T08:17:01;1.28;82.14
77727;SHT30;68312;53.502;10.030;2023-03-08T08:19:27;1.36;81.88
77727;SHT30;68312;53.502;10.030;2023-03-08T08:21:53;1.46;81.34
77727;SHT30;68312;53.502;10.030;2023-03-08T08:24:19;1.67;80.39
77727;SHT30;68312;53.502;10.030;2023-03-08T08:26:44;1.68;79.37
77727;SHT30;68312;53.502;10.030;2023-03-08T08:29:10;1.64;79.91
77727;SHT30;68312;53.502;10.030;2023-03-08T08:31:36;1.64;79.74
77727;SHT30;68312;53.502;10.030;2023-03-08T08:34:01;1.70;79.64
77727;SHT30;68312;53.502;10.030;2023-03-08T08:36:27;1.73;78.88
77727;SHT30;68312;53.502;10.030;2023-03-08T08:38:53;1.73;79.99
77727;SHT30;68312;53.502;10.030;2023-03-08T08:41:21;1.73;79.90
77727;SHT30;68312;53.502;10.030;2023-03-08T08:43:48;1.67;79.80
77727;SHT30;68312;53.502;10.030;2023-03-08T08:46:16;1.57;80.07
77727;SHT30;68312;53.502;10.030;2023-03-08T08:48:42;1.67;79.29
77727;SHT30;68312;53.502;10.030;2023-03-08T08:51:11;1.73;79.13
77727;SHT30;68312;53.502;10.030;2023-03-08T08:53:38;1.81;79.54
77727;SHT30;68312;53.502;10.030;2023-03-08T08:56:23;1.91;78.30
77727;SHT30;68312;53.502;10.030;2023-03-08T08:58:49;1.82;79.88
77727;SHT30;68312;53.502;10.030;2023-03-08T09:01:27;1.78;78.62
77727;SHT30;68312;53.502;10.030;2023-03-08T09:03:54;1.75;79.12
77727;SHT30;68312;53.502;10.030;2023-03-08T09:06:24;1.84;79.37
77727;SHT30;68312;53.502;10.030;2023-03-08T09:08:53;1.77;79.05
77727;SHT30;68312;53.502;10.030;2023-03-08T09:11:22;1.78;78.41
77727;SHT30;68312;53.502;10.030;2023-03-08T09:13:50;1.59;79.69
77727;SHT30;68312;53.502;10.030;2023-03-08T09:16:21;1.57;79.65
77727;SHT30;68312;53.502;10.030;2023-03-08T09:18:58;1.70;80.07
77727;SHT30;68312;53.502;10.030;2023-03-08T09:21:27;1.77;79.85
77727;SHT30;68312;53.502;10.030;2023-03-08T09:23:59;1.87;79.89
77727;SHT30;68312;53.502;10.030;2023-03-08T09:26:29;1.82;78.59
77727;SHT30;68312;53.502;10.030;2023-03-08T09:28:59;1.82;79.47
77727;SHT30;68312;53.502;10.030;2023-03-08T09:31:30;1.77;79.37
77727;SHT30;68312;53.502;10.030;2023-03-08T09:33:57;1.77;79.87
77727;SHT30;68312;53.502;10.030;2023-03-08T09:36:24;1.75;78.93
77727;SHT30;68312;53.502;10.030;2023-03-08T09:38:50;1.75;79.38
77727;SHT30;68312;53.502;10.030;2023-03-08T09:50:27;2.01;78.89
77727;SHT30;68312;53.502;10.030;2023-03-08T09:53:04;2.04;78.60
77727;SHT30;68312;53.502;10.030;2023-03-08T09:55:46;2.00;78.13
77727;SHT30;68312;53.502;10.030;2023-03-08T10:04:17;1.93;78.11
77727;SHT30;68312;53.502;10.030;2023-03-08T10:07:32;1.93;78.65
77727;SHT30;68312;53.502;10.030;2023-03-08T10:10:38;2.00;78.04
77727;SHT30;68312;53.502;10.030;2023-03-08T10:13:29;2.00;77.29
77727;SHT30;68312;53.502;10.030;2023-03-08T10:16:25;2.00;77.88
77727;SHT30;68312;53.502;10.030;2023-03-08T10:19:17;2.07;77.54
77727;SHT30;68312;53.502;10.030;2023-03-08T10:21:48;2.11;77.11
77727;SHT30;68312;53.502;10.030;2023-03-08T10:24:29;2.15;76.76
77727;SHT30;68312;53.502;10.030;2023-03-08T10:27:18;2.12;76.32
77727;SHT30;68312;53.502;10.030;2023-03-08T10:29:52;2.24;77.08
77727;SHT30;68312;53.502;10.030;2023-03-08T10:32:22;2.42;77.10
77727;SHT30;68312;53.502;10.030;2023-03-08T10:35:03;2.36;76.09
77727;SHT30;68312;53.502;10.030;2023-03-08T10:37:32;2.48;75.71
77727;SHT30;68312;53.502;10.030;2023-03-08T10:40:01;2.59;76.11
77727;SHT30;68312;53.502;10.030;2023-03-08T10:42:34;2.72;76.57
77727;SHT30;68312;53.502;10.030;2023-03-08T10:45:14;2.64;74.67
77727;SHT30;68312;53.502;10.030;2023-03-08T10:48:18;2.72;74.64
77727;SHT30;68312;53.502;10.030;2023-03-08T10:50:44;2.84;75.19
77727;SHT30;68312;53.502;10.030;2023-03-08T10:53:17;2.93;73.58
77727;SHT30;68312;53.502;10.030;2023-03-08T10:55:47;2.87;73.40
77727;SHT30;68312;53.502;10.030;2023-03-08T10:58:36;3.15;72.42
77727;SHT30;68312;53.502;10.030;2023-03-08T11:01:21;3.05;72.76
77727;SHT30;68312;53.502;10.030;2023-03-08T11:04:02;3.12;72.33
77727;SHT30;68312;53.502;10.030;2023-03-08T11:06:30;3.21;72.64
77727;SHT30;68312;53.502;10.030;2023-03-08T11:09:02;3.24;70.70
77727;SHT30;68312;53.502;10.030;2023-03-08T11:11:40;3.49;71.62
77727;SHT30;68312;53.502;10.030;2023-03-08T11:14:10;3.70;70.19
77727;SHT30;68312;53.502;10.030;2023-03-08T11:23:04;4.62;65.99
77727;SHT30;68312;53.502;10.030;2023-03-08T11:25:53;4.72;65.16
77727;SHT30;68312;53.502;10.030;2023-03-08T11:29:05;4.54;66.08
77727;SHT30;68312;53.502;10.030;2023-03-08T11:38:17;5.33;63.33
77727;SHT30;68312;53.502;10.030;2023-03-08T11:44:02;7.73;56.42
77727;SHT30;68312;53.502;10.030;2023-03-08T11:56:38;8.57;51.11
77727;SHT30;68312;53.502;10.030;2023-03-08T12:02:29;7.33;54.86
77727;SHT30;68312;53.502;10.030;2023-03-08T12:05:26;7.35;54.60
77727;SHT30;68312;53.502;10.030;2023-03-08T12:08:04;7.37;55.22
77727;SHT30;68312;53.502;10.030;2023-03-08T12:10:45;7.20;54.70
77727;SHT30;68312;53.502;10.030;2023-03-08T12:13:36;6.84;56.36
77727;SHT30;68312;53.502;10.030;2023-03-08T12:16:30;6.33;57.11
77727;SHT30;68312;53.502;10.030;2023-03-08T12:19:19;6.57;55.84
77727;SHT30;68312;53.502;10.030;2023-03-08T12:25:21;6.67;56.04
77727;SHT30;68312;53.502;10.030;2023-03-08T12:28:24;6.41;56.15
77727;SHT30;68312;53.502;10.030;2023-03-08T12:33:54;5.77;57.99
77727;SHT30;68312;53.502;10.030;2023-03-08T12:36:21;6.17;57.52
77727;SHT30;68312;53.502;10.030;2023-03-08T12:39:22;6.37;53.94
77727;SHT30;68312;53.502;10.030;2023-03-08T12:42:13;5.86;55.81
77727;SHT30;68312;53.502;10.030;2023-03-08T12:44:41;5.84;59.34
77727;SHT30;68312;53.502;10.030;2023-03-08T12:50:07;5.79;59.44
77727;SHT30;68312;53.502;10.030;2023-03-08T12:52:41;5.91;59.59
77727;SHT30;68312;53.502;10.030;2023-03-08T12:55:25;5.65;60.31
77727;SHT30;68312;53.502;10.030;2023-03-08T12:57:59;5.48;60.75
77727;SHT30;68312;53.502;10.030;2023-03-08T13:00:31;5.67;59.62
77727;SHT30;68312;53.502;10.030;2023-03-08T13:05:41;5.61;58.98
77727;SHT30;68312;53.502;10.030;2023-03-08T13:13:44;5.65;57.36
77727;SHT30;68312;53.502;10.030;2023-03-08T13:16:38;5.96;59.86
77727;SHT30;68312;53.502;10.030;2023-03-08T13:19:21;6.19;58.00
77727;SHT30;68312;53.502;10.030;2023-03-08T13:22:22;6.41;59.18
77727;SHT30;68312;53.502;10.030;2023-03-08T13:25:07;6.48;57.73
77727;SHT30;68312;53.502;10.030;2023-03-08T13:28:14;6.12;57.10
77727;SHT30;68312;53.502;10.030;2023-03-08T13:30:56;6.05;58.48
77727;SHT30;68312;53.502;10.030;2023-03-08T13:33:29;6.01;55.70
77727;SHT30;68312;53.502;10.030;2023-03-08T13:36:02;5.94;57.64
77727;SHT30;68312;53.502;10.030;2023-03-08T13:38:33;6.44;57.41
77727;SHT30;68312;53.502;10.030;2023-03-08T13:41:01;6.67;55.64
77727;SHT30;68312;53.502;10.030;2023-03-08T13:43:33;6.89;54.32
77727;SHT30;68312;53.502;10.030;2023-03-08T13:46:03;7.02;54.15
77727;SHT30;68312;53.502;10.030;2023-03-08T13:48:35;6.60;53.30
77727;SHT30;68312;53.502;10.030;2023-03-08T13:51:02;6.85;53.32
77727;SHT30;68312;53.502;10.030;2023-03-08T13:53:32;7.25;53.63
77727;SHT30;68312;53.502;10.030;2023-03-08T13:56:03;7.42;51.65
77727;SHT30;68312;53.502;10.030;2023-03-08T13:58:35;7.45;52.36
77727;SHT30;68312;53.502;10.030;2023-03-08T14:01:24;7.20;52.85
77727;SHT30;68312;53.502;10.030;2023-03-08T14:03:53;6.87;54.07
77727;SHT30;68312;53.502;10.030;2023-03-08T14:06:31;6.68;55.77
77727;SHT30;68312;53.502;10.030;2023-03-08T14:08:59;6.15;55.41
77727;SHT30;68312;53.502;10.030;2023-03-08T14:11:36;5.99;56.67
77727;SHT30;68312;53.502;10.030;2023-03-08T14:14:19;5.65;56.84
77727;SHT30;68312;53.502;10.030;2023-03-08T14:16:52;5.43;58.36
77727;SHT30;68312;53.502;10.030;2023-03-08T14:19:26;5.43;59.86
77727;SHT30;68312;53.502;10.030;2023-03-08T14:22:01;5.51;59.04
77727;SHT30;68312;53.502;10.030;2023-03-08T14:24:52;5.31;56.98
77727;SHT30;68312;53.502;10.030;2023-03-08T14:29:46;5.28;57.54
77727;SHT30;68312;53.502;10.030;2023-03-08T14:34:45;5.47;59.16
77727;SHT30;68312;53.502;10.030;2023-03-08T14:37:36;5.57;56.07
77727;SHT30;68312;53.502;10.030;2023-03-08T14:42:46;5.50;56.34
77727;SHT30;68312;53.502;10.030;2023-03-08T14:50:55;5.31;56.48
77727;SHT30;68312;53.502;10.030;2023-03-08T14:53:39;5.37;56.88
77727;SHT30;68312;53.502;10.030;2023-03-08T14:56:11;5.12;55.83
77727;SHT30;68312;53.502;10.030;2023-03-08T14:58:43;5.10;58.35
77727;SHT30;68312;53.502;10.030;2023-03-08T15:01:27;5.09;58.66
77727;SHT30;68312;53.502;10.030;2023-03-08T15:03:54;4.96;57.63
77727;SHT30;68312;53.502;10.030;2023-03-08T15:06:25;4.85;56.88
77727;SHT30;68312;53.502;10.030;2023-03-08T15:08:54;4.78;60.09
77727;SHT30;68312;53.502;10.030;2023-03-08T15:11:21;4.76;60.61
77727;SHT30;68312;53.502;10.030;2023-03-08T15:13:48;4.69;59.96
77727;SHT30;68312;53.502;10.030;2023-03-08T15:16:14;4.64;60.24
77727;SHT30;68312;53.502;10.030;2023-03-08T15:18:39;4.61;60.79
77727;SHT30;68312;53.502;10.030;2023-03-08T15:21:05;4.62;61.93
77727;SHT30;68312;53.502;10.030;2023-03-08T15:23:34;4.62;61.50
77727;SHT30;68312;53.502;10.030;2023-03-08T15:26:04;4.49;59.48
77727;SHT30;68312;53.502;10.030;2023-03-08T15:28:31;4.42;60.68
77727;SHT30;68312;53.502;10.030;2023-03-08T15:30:56;4.36;60.79
77727;SHT30;68312;53.502;10.030;2023-03-08T15:33:22;4.34;59.76
77727;SHT30;68312;53.502;10.030;2023-03-08T15:35:49;4.30;61.00
77727;SHT30;68312;53.502;10.030;2023-03-08T15:38:17;4.25;60.17
77727;SHT30;68312;53.502;10.030;2023-03-08T15:40:43;4.18;60.22
77727;SHT30;68312;53.502;10.030;2023-03-08T15:43:09;4.21;60.68
77727;SHT30;68312;53.502;10.030;2023-03-08T15:45:36;4.11;61.81
77727;SHT30;68312;53.502;10.030;2023-03-08T15:48:11;4.04;61.62
77727;SHT30;68312;53.502;10.030;2023-03-08T15:50:38;4.01;61.27
77727;SHT30;68312;53.502;10.030;2023-03-08T15:53:05;3.99;61.33
77727;SHT30;68312;53.502;10.030;2023-03-08T15:55:31;3.97;62.37
77727;SHT30;68312;53.502;10.030;2023-03-08T15:57:58;3.94;61.26
77727;SHT30;68312;53.502;10.030;2023-03-08T16:00:24;3.89;62.49
77727;SHT30;68312;53.502;10.030;2023-03-08T16:02:53;3.83;63.47
77727;SHT30;68312;53.502;10.030;2023-03-08T16:05:21;3.80;63.20
77727;SHT30;68312;53.502;10.030;2023-03-08T16:07:58;3.78;62.57
77727;SHT30;68312;53.502;10.030;2023-03-08T16:10:30;3.72;62.31
77727;SHT30;68312;53.502;10.030;2023-03-08T16:13:01;3.70;62.39
77727;SHT30;68312;53.502;10.030;2023-03-08T16:15:27;3.62;62.52
77727;SHT30;68312;53.502;10.030;2023-03-08T16:17:55;3.59;62.19
77727;SHT30;68312;53.502;10.030;2023-03-08T16:20:21;3.56;62.50
77727;SHT30;68312;53.502;10.030;2023-03-08T16:22:47;3.54;63.35
77727;SHT30;68312;53.502;10.030;2023-03-08T16:25:14;3.49;63.69
77727;SHT30;68312;53.502;10.030;2023-03-08T16:27:40;3.46;64.33
77727;SHT30;68312;53.502;10.030;2023-03-08T16:30:06;3.46;65.11
77727;SHT30;68312;53.502;10.030;2023-03-08T16:32:33;3.41;65.36
77727;SHT30;68312;53.502;10.030;2023-03-08T16:34:59;3.32;66.00
77727;SHT30;68312;53.502;10.030;2023-03-08T16:37:26;3.24;66.36
77727;SHT30;68312;53.502;10.030;2023-03-08T16:39:52;3.20;66.74
77727;SHT30;68312;53.502;10.030;2023-03-08T16:42:27;3.12;67.00
77727;SHT30;68312;53.502;10.030;2023-03-08T16:44:54;3.04;66.39
77727;SHT30;68312;53.502;10.030;2023-03-08T16:47:23;3.00;66.70
77727;SHT30;68312;53.502;10.030;2023-03-08T16:49:50;2.96;66.87
77727;SHT30;68312;53.502;10.030;2023-03-08T16:52:16;2.89;67.57
77727;SHT30;68312;53.502;10.030;2023-03-08T16:54:45;2.84;67.56
77727;SHT30;68312;53.502;10.030;2023-03-08T16:57:13;2.84;67.59
77727;SHT30;68312;53.502;10.030;2023-03-08T16:59:41;2.75;68.48
77727;SHT30;68312;53.502;10.030;2023-03-08T17:02:16;2.76;67.65
77727;SHT30;68312;53.502;10.030;2023-03-08T17:04:45;2.70;67.75
77727;SHT30;68312;53.502;10.030;2023-03-08T17:07:12;2.63;67.95
77727;SHT30;68312;53.502;10.030;2023-03-08T17:09:38;2.60;68.39
77727;SHT30;68312;53.502;10.030;2023-03-08T17:12:05;2.57;68.09